Ujfeherto, Hungary
Current Conditions -  °F | °C
As of 4:15 PM on Friday 28 Nov 2014 (Local Time) from LHDC Reporting Station
Haze Haze  
Wind Chill: 27°   Ceiling: 3300
Heat Index: 34°   Visibility: 1.5mi
Dew Point: 32°   Wind: 8mph
Humidity: 93%   Direction: 50°NE
Pressure: 30.12"   Gusts: NA
Location:  47.8°N, 21.68°E
Report Text: LHDC 281415Z 05007KT 2500 BR OVC033 01/00 Q1020
Loading
Personal Weather Stations






























Interactive Weather Map New forecast layout! Learn more

10-Day Weather Forecast

Advertisements
Track Severe Weather on mobile